sensor_id;sensor_type;location;lat;lon;timestamp;P1;durP1;ratioP1;P2;durP2;ratioP2
5742;SDS011;2896;53.500;10.020;2023-03-23T00:02:11;12.20;;;8.80;;
5742;SDS011;2896;53.500;10.020;2023-03-23T00:04:38;14.27;;;9.27;;
5742;SDS011;2896;53.500;10.020;2023-03-23T00:07:04;12.17;;;8.37;;
5742;SDS011;2896;53.500;10.020;2023-03-23T00:09:32;13.40;;;9.03;;
5742;SDS011;2896;53.500;10.020;2023-03-23T00:11:59;13.70;;;8.00;;
5742;SDS011;2896;53.500;10.020;2023-03-23T00:14:30;11.80;;;7.93;;
5742;SDS011;2896;53.500;10.020;2023-03-23T00:17:05;10.20;;;8.57;;
5742;SDS011;2896;53.500;10.020;2023-03-23T00:19:35;17.20;;;10.30;;
5742;SDS011;2896;53.500;10.020;2023-03-23T00:22:10;11.00;;;9.80;;
5742;SDS011;2896;53.500;10.020;2023-03-23T00:24:39;10.80;;;9.73;;
5742;SDS011;2896;53.500;10.020;2023-03-23T00:27:05;13.03;;;9.60;;
5742;SDS011;2896;53.500;10.020;2023-03-23T00:29:33;12.57;;;10.33;;
5742;SDS011;2896;53.500;10.020;2023-03-23T00:32:00;13.90;;;11.20;;
5742;SDS011;2896;53.500;10.020;2023-03-23T00:34:27;20.30;;;12.53;;
5742;SDS011;2896;53.500;10.020;2023-03-23T00:36:57;19.20;;;12.33;;
5742;SDS011;2896;53.500;10.020;2023-03-23T00:39:24;25.50;;;11.57;;
5742;SDS011;2896;53.500;10.020;2023-03-23T00:41:53;22.00;;;12.47;;
5742;SDS011;2896;53.500;10.020;2023-03-23T00:44:25;17.27;;;12.67;;
5742;SDS011;2896;53.500;10.020;2023-03-23T00:46:53;19.13;;;13.83;;
5742;SDS011;2896;53.500;10.020;2023-03-23T00:49:21;23.03;;;15.10;;
5742;SDS011;2896;53.500;10.020;2023-03-23T00:51:50;21.37;;;13.97;;
5742;SDS011;2896;53.500;10.020;2023-03-23T00:54:17;18.53;;;15.10;;
5742;SDS011;2896;53.500;10.020;2023-03-23T00:56:44;20.20;;;15.33;;
5742;SDS011;2896;53.500;10.020;2023-03-23T00:59:12;21.97;;;14.90;;
5742;SDS011;2896;53.500;10.020;2023-03-23T01:01:40;16.23;;;13.97;;
5742;SDS011;2896;53.500;10.020;2023-03-23T01:04:07;21.20;;;14.60;;
5742;SDS011;2896;53.500;10.020;2023-03-23T01:06:37;21.10;;;14.40;;
5742;SDS011;2896;53.500;10.020;2023-03-23T01:09:06;20.03;;;15.50;;
5742;SDS011;2896;53.500;10.020;2023-03-23T01:11:34;17.77;;;14.77;;
5742;SDS011;2896;53.500;10.020;2023-03-23T01:14:02;19.17;;;15.90;;
5742;SDS011;2896;53.500;10.020;2023-03-23T01:16:31;21.40;;;16.40;;
5742;SDS011;2896;53.500;10.020;2023-03-23T01:18:58;24.30;;;16.43;;
5742;SDS011;2896;53.500;10.020;2023-03-23T01:21:24;22.23;;;16.30;;
5742;SDS011;2896;53.500;10.020;2023-03-23T01:23:51;20.97;;;16.07;;
5742;SDS011;2896;53.500;10.020;2023-03-23T01:26:19;21.13;;;16.23;;
5742;SDS011;2896;53.500;10.020;2023-03-23T01:28:47;23.90;;;15.60;;
5742;SDS011;2896;53.500;10.020;2023-03-23T01:31:14;22.33;;;16.27;;
5742;SDS011;2896;53.500;10.020;2023-03-23T01:33:44;25.57;;;17.20;;
5742;SDS011;2896;53.500;10.020;2023-03-23T01:36:11;21.40;;;16.80;;
5742;SDS011;2896;53.500;10.020;2023-03-23T01:38:41;21.83;;;15.63;;
5742;SDS011;2896;53.500;10.020;2023-03-23T01:41:08;23.73;;;16.60;;
5742;SDS011;2896;53.500;10.020;2023-03-23T01:43:35;26.90;;;17.20;;
5742;SDS011;2896;53.500;10.020;2023-03-23T01:46:02;24.03;;;16.97;;
5742;SDS011;2896;53.500;10.020;2023-03-23T01:48:32;23.70;;;16.60;;
5742;SDS011;2896;53.500;10.020;2023-03-23T01:51:04;26.63;;;17.23;;
5742;SDS011;2896;53.500;10.020;2023-03-23T01:53:34;21.23;;;15.57;;
5742;SDS011;2896;53.500;10.020;2023-03-23T01:56:04;20.13;;;15.37;;
5742;SDS011;2896;53.500;10.020;2023-03-23T01:58:33;25.30;;;15.53;;
5742;SDS011;2896;53.500;10.020;2023-03-23T02:01:03;22.10;;;16.03;;
5742;SDS011;2896;53.500;10.020;2023-03-23T02:03:32;22.47;;;15.97;;
5742;SDS011;2896;53.500;10.020;2023-03-23T02:06:00;18.37;;;16.20;;
5742;SDS011;2896;53.500;10.020;2023-03-23T02:08:29;27.17;;;16.80;;
5742;SDS011;2896;53.500;10.020;2023-03-23T02:10:58;34.73;;;15.73;;
5742;SDS011;2896;53.500;10.020;2023-03-23T02:13:25;26.03;;;15.93;;
5742;SDS011;2896;53.500;10.020;2023-03-23T02:15:54;22.67;;;15.07;;
5742;SDS011;2896;53.500;10.020;2023-03-23T02:18:30;16.57;;;14.40;;
5742;SDS011;2896;53.500;10.020;2023-03-23T02:24:21;25.97;;;16.00;;
5742;SDS011;2896;53.500;10.020;2023-03-23T02:27:13;21.80;;;15.20;;
5742;SDS011;2896;53.500;10.020;2023-03-23T02:29:48;22.07;;;16.03;;
5742;SDS011;2896;53.500;10.020;2023-03-23T02:32:41;21.13;;;13.80;;
5742;SDS011;2896;53.500;10.020;2023-03-23T02:35:21;18.20;;;14.97;;
5742;SDS011;2896;53.500;10.020;2023-03-23T02:37:54;25.17;;;15.37;;
5742;SDS011;2896;53.500;10.020;2023-03-23T02:40:27;20.80;;;15.33;;
5742;SDS011;2896;53.500;10.020;2023-03-23T02:42:56;18.77;;;14.33;;
5742;SDS011;2896;53.500;10.020;2023-03-23T02:45:24;20.10;;;14.30;;
5742;SDS011;2896;53.500;10.020;2023-03-23T02:47:55;19.57;;;15.20;;
5742;SDS011;2896;53.500;10.020;2023-03-23T02:50:24;22.70;;;13.80;;
5742;SDS011;2896;53.500;10.020;2023-03-23T02:52:53;16.90;;;13.87;;
5742;SDS011;2896;53.500;10.020;2023-03-23T02:55:23;18.97;;;14.30;;
5742;SDS011;2896;53.500;10.020;2023-03-23T02:57:51;20.50;;;14.20;;
5742;SDS011;2896;53.500;10.020;2023-03-23T03:00:19;18.10;;;14.63;;
5742;SDS011;2896;53.500;10.020;2023-03-23T03:02:47;22.30;;;14.57;;
5742;SDS011;2896;53.500;10.020;2023-03-23T03:05:19;19.03;;;14.37;;
5742;SDS011;2896;53.500;10.020;2023-03-23T03:07:58;21.50;;;14.33;;
5742;SDS011;2896;53.500;10.020;2023-03-23T03:10:34;21.57;;;16.10;;
5742;SDS011;2896;53.500;10.020;2023-03-23T03:13:09;17.53;;;15.00;;
5742;SDS011;2896;53.500;10.020;2023-03-23T03:15:41;16.80;;;13.77;;
5742;SDS011;2896;53.500;10.020;2023-03-23T03:18:14;18.93;;;15.93;;
5742;SDS011;2896;53.500;10.020;2023-03-23T03:20:48;15.57;;;13.83;;
5742;SDS011;2896;53.500;10.020;2023-03-23T03:23:19;22.73;;;15.80;;
5742;SDS011;2896;53.500;10.020;2023-03-23T03:25:48;19.63;;;15.10;;
5742;SDS011;2896;53.500;10.020;2023-03-23T03:28:18;21.10;;;14.97;;
5742;SDS011;2896;53.500;10.020;2023-03-23T03:30:47;21.03;;;14.10;;
5742;SDS011;2896;53.500;10.020;2023-03-23T03:33:18;20.80;;;14.37;;
5742;SDS011;2896;53.500;10.020;2023-03-23T03:35:51;19.67;;;15.00;;
5742;SDS011;2896;53.500;10.020;2023-03-23T03:38:20;18.70;;;14.50;;
5742;SDS011;2896;53.500;10.020;2023-03-23T03:40:47;16.73;;;13.63;;
5742;SDS011;2896;53.500;10.020;2023-03-23T03:43:14;25.07;;;16.33;;
5742;SDS011;2896;53.500;10.020;2023-03-23T03:45:41;26.00;;;15.00;;
5742;SDS011;2896;53.500;10.020;2023-03-23T03:48:07;21.90;;;15.80;;
5742;SDS011;2896;53.500;10.020;2023-03-23T03:50:34;21.53;;;14.67;;
5742;SDS011;2896;53.500;10.020;2023-03-23T03:53:03;18.20;;;14.77;;
5742;SDS011;2896;53.500;10.020;2023-03-23T03:55:30;19.03;;;15.20;;
5742;SDS011;2896;53.500;10.020;2023-03-23T03:58:00;17.00;;;13.63;;
5742;SDS011;2896;53.500;10.020;2023-03-23T04:00:27;22.90;;;15.03;;
5742;SDS011;2896;53.500;10.020;2023-03-23T04:02:54;19.70;;;14.70;;
5742;SDS011;2896;53.500;10.020;2023-03-23T04:05:21;17.17;;;14.60;;
5742;SDS011;2896;53.500;10.020;2023-03-23T04:07:48;18.10;;;14.30;;
5742;SDS011;2896;53.500;10.020;2023-03-23T04:10:18;16.43;;;14.60;;
5742;SDS011;2896;53.500;10.020;2023-03-23T04:12:47;18.87;;;14.10;;
5742;SDS011;2896;53.500;10.020;2023-03-23T04:15:13;17.07;;;14.00;;
5742;SDS011;2896;53.500;10.020;2023-03-23T04:17:40;17.97;;;13.80;;
5742;SDS011;2896;53.500;10.020;2023-03-23T04:20:07;19.97;;;15.07;;
5742;SDS011;2896;53.500;10.020;2023-03-23T04:22:37;18.30;;;14.50;;
5742;SDS011;2896;53.500;10.020;2023-03-23T04:25:04;22.90;;;14.87;;
5742;SDS011;2896;53.500;10.020;2023-03-23T04:27:33;19.67;;;15.17;;
5742;SDS011;2896;53.500;10.020;2023-03-23T04:30:00;18.00;;;15.10;;
5742;SDS011;2896;53.500;10.020;2023-03-23T04:32:28;21.40;;;15.73;;
5742;SDS011;2896;53.500;10.020;2023-03-23T04:34:55;19.40;;;16.10;;
5742;SDS011;2896;53.500;10.020;2023-03-23T04:37:23;18.47;;;15.43;;
5742;SDS011;2896;53.500;10.020;2023-03-23T04:39:53;22.43;;;14.77;;
5742;SDS011;2896;53.500;10.020;2023-03-23T04:42:25;19.30;;;14.47;;
5742;SDS011;2896;53.500;10.020;2023-03-23T04:44:54;17.27;;;14.10;;
5742;SDS011;2896;53.500;10.020;2023-03-23T04:47:20;17.23;;;15.43;;
5742;SDS011;2896;53.500;10.020;2023-03-23T04:49:47;17.73;;;15.93;;
5742;SDS011;2896;53.500;10.020;2023-03-23T04:52:14;21.20;;;15.23;;
5742;SDS011;2896;53.500;10.020;2023-03-23T04:54:41;18.00;;;15.97;;
5742;SDS011;2896;53.500;10.020;2023-03-23T04:57:07;16.57;;;14.33;;
5742;SDS011;2896;53.500;10.020;2023-03-23T04:59:34;21.93;;;15.47;;
5742;SDS011;2896;53.500;10.020;2023-03-23T05:02:03;18.00;;;13.90;;
5742;SDS011;2896;53.500;10.020;2023-03-23T05:04:29;22.07;;;14.73;;
5742;SDS011;2896;53.500;10.020;2023-03-23T05:06:58;16.50;;;14.60;;
5742;SDS011;2896;53.500;10.020;2023-03-23T05:09:25;17.77;;;14.00;;
5742;SDS011;2896;53.500;10.020;2023-03-23T05:11:51;16.00;;;13.70;;
5742;SDS011;2896;53.500;10.020;2023-03-23T05:14:18;18.40;;;14.50;;
5742;SDS011;2896;53.500;10.020;2023-03-23T05:16:46;15.70;;;13.03;;
5742;SDS011;2896;53.500;10.020;2023-03-23T05:19:15;14.40;;;12.90;;
5742;SDS011;2896;53.500;10.020;2023-03-23T05:21:41;14.30;;;12.60;;
5742;SDS011;2896;53.500;10.020;2023-03-23T05:24:09;12.90;;;11.23;;
5742;SDS011;2896;53.500;10.020;2023-03-23T05:26:36;14.10;;;11.47;;
5742;SDS011;2896;53.500;10.020;2023-03-23T05:29:02;12.67;;;11.33;;
5742;SDS011;2896;53.500;10.020;2023-03-23T05:31:29;15.43;;;11.27;;
5742;SDS011;2896;53.500;10.020;2023-03-23T05:33:57;12.17;;;10.83;;
5742;SDS011;2896;53.500;10.020;2023-03-23T05:36:25;14.50;;;11.37;;
5742;SDS011;2896;53.500;10.020;2023-03-23T05:38:51;12.07;;;9.27;;
5742;SDS011;2896;53.500;10.020;2023-03-23T05:41:18;16.57;;;10.40;;
5742;SDS011;2896;53.500;10.020;2023-03-23T05:43:46;14.20;;;9.97;;
5742;SDS011;2896;53.500;10.020;2023-03-23T05:46:12;11.60;;;9.30;;
5742;SDS011;2896;53.500;10.020;2023-03-23T05:48:39;10.47;;;8.90;;
5742;SDS011;2896;53.500;10.020;2023-03-23T05:51:06;9.67;;;8.80;;
5742;SDS011;2896;53.500;10.020;2023-03-23T05:53:34;12.33;;;8.70;;
5742;SDS011;2896;53.500;10.020;2023-03-23T05:56:01;13.07;;;9.17;;
5742;SDS011;2896;53.500;10.020;2023-03-23T05:58:28;10.50;;;8.37;;
5742;SDS011;2896;53.500;10.020;2023-03-23T06:00:56;10.17;;;8.57;;
5742;SDS011;2896;53.500;10.020;2023-03-23T06:03:23;9.67;;;8.20;;
5742;SDS011;2896;53.500;10.020;2023-03-23T06:05:49;8.70;;;7.80;;
5742;SDS011;2896;53.500;10.020;2023-03-23T06:08:17;10.33;;;7.73;;
5742;SDS011;2896;53.500;10.020;2023-03-23T06:10:45;8.83;;;7.13;;
5742;SDS011;2896;53.500;10.020;2023-03-23T06:13:13;13.47;;;7.90;;
5742;SDS011;2896;53.500;10.020;2023-03-23T06:15:40;8.33;;;7.57;;
5742;SDS011;2896;53.500;10.020;2023-03-23T06:18:07;7.47;;;6.53;;
5742;SDS011;2896;53.500;10.020;2023-03-23T06:20:34;15.77;;;7.00;;
5742;SDS011;2896;53.500;10.020;2023-03-23T06:23:01;7.90;;;7.10;;
5742;SDS011;2896;53.500;10.020;2023-03-23T06:25:29;9.40;;;7.20;;
5742;SDS011;2896;53.500;10.020;2023-03-23T06:27:57;11.07;;;7.40;;
5742;SDS011;2896;53.500;10.020;2023-03-23T06:30:24;7.23;;;6.60;;
5742;SDS011;2896;53.500;10.020;2023-03-23T06:32:52;7.63;;;6.60;;
5742;SDS011;2896;53.500;10.020;2023-03-23T06:35:18;13.13;;;6.97;;
5742;SDS011;2896;53.500;10.020;2023-03-23T06:37:46;6.80;;;6.20;;
5742;SDS011;2896;53.500;10.020;2023-03-23T06:40:12;6.63;;;5.93;;
5742;SDS011;2896;53.500;10.020;2023-03-23T06:42:39;9.77;;;6.00;;
5742;SDS011;2896;53.500;10.020;2023-03-23T06:45:07;6.30;;;5.67;;
5742;SDS011;2896;53.500;10.020;2023-03-23T06:47:35;11.03;;;5.80;;
5742;SDS011;2896;53.500;10.020;2023-03-23T06:50:02;6.07;;;5.57;;
5742;SDS011;2896;53.500;10.020;2023-03-23T06:52:29;6.83;;;5.97;;
5742;SDS011;2896;53.500;10.020;2023-03-23T06:54:56;6.50;;;5.73;;
5742;SDS011;2896;53.500;10.020;2023-03-23T06:57:23;5.70;;;5.20;;
5742;SDS011;2896;53.500;10.020;2023-03-23T06:59:49;5.83;;;5.20;;
5742;SDS011;2896;53.500;10.020;2023-03-23T07:02:17;6.10;;;5.53;;
5742;SDS011;2896;53.500;10.020;2023-03-23T07:04:44;7.53;;;5.10;;
5742;SDS011;2896;53.500;10.020;2023-03-23T07:07:11;7.40;;;4.77;;
5742;SDS011;2896;53.500;10.020;2023-03-23T07:09:39;8.70;;;5.90;;
5742;SDS011;2896;53.500;10.020;2023-03-23T07:12:07;6.83;;;5.20;;
5742;SDS011;2896;53.500;10.020;2023-03-23T07:14:34;7.13;;;5.47;;
5742;SDS011;2896;53.500;10.020;2023-03-23T07:17:02;8.07;;;4.67;;
5742;SDS011;2896;53.500;10.020;2023-03-23T07:19:30;5.87;;;5.30;;
5742;SDS011;2896;53.500;10.020;2023-03-23T07:21:57;6.00;;;5.43;;
5742;SDS011;2896;53.500;10.020;2023-03-23T07:24:23;4.73;;;4.43;;
5742;SDS011;2896;53.500;10.020;2023-03-23T07:26:51;5.37;;;4.87;;
5742;SDS011;2896;53.500;10.020;2023-03-23T07:29:18;6.20;;;4.47;;
5742;SDS011;2896;53.500;10.020;2023-03-23T07:31:44;10.00;;;3.90;;
5742;SDS011;2896;53.500;10.020;2023-03-23T07:34:11;6.80;;;4.33;;
5742;SDS011;2896;53.500;10.020;2023-03-23T07:36:39;4.53;;;4.20;;
5742;SDS011;2896;53.500;10.020;2023-03-23T07:39:06;4.77;;;4.30;;
5742;SDS011;2896;53.500;10.020;2023-03-23T07:41:33;7.90;;;4.70;;
5742;SDS011;2896;53.500;10.020;2023-03-23T07:44:00;4.83;;;4.43;;
5742;SDS011;2896;53.500;10.020;2023-03-23T07:46:27;5.17;;;4.73;;
5742;SDS011;2896;53.500;10.020;2023-03-23T07:48:54;4.07;;;3.87;;
5742;SDS011;2896;53.500;10.020;2023-03-23T07:51:21;4.47;;;4.20;;
5742;SDS011;2896;53.500;10.020;2023-03-23T07:53:49;4.90;;;4.60;;
5742;SDS011;2896;53.500;10.020;2023-03-23T07:56:16;6.70;;;4.90;;
5742;SDS011;2896;53.500;10.020;2023-03-23T07:58:44;5.20;;;4.50;;
5742;SDS011;2896;53.500;10.020;2023-03-23T08:01:11;6.43;;;4.87;;
5742;SDS011;2896;53.500;10.020;2023-03-23T08:03:38;5.30;;;4.83;;
5742;SDS011;2896;53.500;10.020;2023-03-23T08:06:05;5.37;;;4.87;;
5742;SDS011;2896;53.500;10.020;2023-03-23T08:08:33;5.33;;;4.83;;
5742;SDS011;2896;53.500;10.020;2023-03-23T08:11:01;5.43;;;4.93;;
5742;SDS011;2896;53.500;10.020;2023-03-23T08:13:29;5.30;;;4.90;;
5742;SDS011;2896;53.500;10.020;2023-03-23T08:15:55;9.13;;;5.47;;
5742;SDS011;2896;53.500;10.020;2023-03-23T08:18:22;5.90;;;5.40;;
5742;SDS011;2896;53.500;10.020;2023-03-23T08:20:49;6.27;;;5.57;;
5742;SDS011;2896;53.500;10.020;2023-03-23T08:23:18;5.00;;;4.63;;
5742;SDS011;2896;53.500;10.020;2023-03-23T08:25:45;6.10;;;5.70;;
5742;SDS011;2896;53.500;10.020;2023-03-23T08:28:13;5.83;;;5.27;;
5742;SDS011;2896;53.500;10.020;2023-03-23T08:30:40;6.90;;;5.50;;
5742;SDS011;2896;53.500;10.020;2023-03-23T08:33:07;5.40;;;5.00;;
5742;SDS011;2896;53.500;10.020;2023-03-23T08:35:35;5.57;;;5.10;;
5742;SDS011;2896;53.500;10.020;2023-03-23T08:38:02;5.33;;;5.00;;
5742;SDS011;2896;53.500;10.020;2023-03-23T08:40:29;6.50;;;5.57;;
5742;SDS011;2896;53.500;10.020;2023-03-23T08:42:57;6.97;;;6.30;;
5742;SDS011;2896;53.500;10.020;2023-03-23T08:45:25;4.90;;;4.40;;
5742;SDS011;2896;53.500;10.020;2023-03-23T08:47:52;4.30;;;4.00;;
5742;SDS011;2896;53.500;10.020;2023-03-23T08:50:22;4.73;;;3.67;;
5742;SDS011;2896;53.500;10.020;2023-03-23T08:52:51;8.43;;;4.10;;
5742;SDS011;2896;53.500;10.020;2023-03-23T08:55:19;5.57;;;3.30;;
5742;SDS011;2896;53.500;10.020;2023-03-23T08:57:46;7.50;;;3.53;;
5742;SDS011;2896;53.500;10.020;2023-03-23T09:00:14;3.23;;;2.80;;
5742;SDS011;2896;53.500;10.020;2023-03-23T09:02:46;2.30;;;2.20;;
5742;SDS011;2896;53.500;10.020;2023-03-23T09:05:15;5.30;;;2.80;;
5742;SDS011;2896;53.500;10.020;2023-03-23T09:07:43;4.27;;;2.80;;
5742;SDS011;2896;53.500;10.020;2023-03-23T09:10:12;3.60;;;2.60;;
5742;SDS011;2896;53.500;10.020;2023-03-23T09:12:40;3.83;;;2.20;;
5742;SDS011;2896;53.500;10.020;2023-03-23T09:15:08;6.40;;;3.20;;
5742;SDS011;2896;53.500;10.020;2023-03-23T09:17:37;8.37;;;2.60;;
5742;SDS011;2896;53.500;10.020;2023-03-23T09:20:07;7.10;;;3.00;;
5742;SDS011;2896;53.500;10.020;2023-03-23T09:22:37;2.80;;;2.27;;
5742;SDS011;2896;53.500;10.020;2023-03-23T09:25:05;6.27;;;2.33;;
5742;SDS011;2896;53.500;10.020;2023-03-23T09:27:33;7.73;;;2.30;;
5742;SDS011;2896;53.500;10.020;2023-03-23T09:30:01;5.50;;;2.87;;
5742;SDS011;2896;53.500;10.020;2023-03-23T09:32:31;6.03;;;2.63;;
5742;SDS011;2896;53.500;10.020;2023-03-23T09:34:58;4.23;;;2.53;;
5742;SDS011;2896;53.500;10.020;2023-03-23T09:37:26;19.83;;;3.57;;
5742;SDS011;2896;53.500;10.020;2023-03-23T09:39:53;4.77;;;2.27;;
5742;SDS011;2896;53.500;10.020;2023-03-23T09:42:24;9.90;;;3.00;;
5742;SDS011;2896;53.500;10.020;2023-03-23T09:45:06;8.93;;;2.33;;
5742;SDS011;2896;53.500;10.020;2023-03-23T09:47:43;6.67;;;2.80;;
5742;SDS011;2896;53.500;10.020;2023-03-23T09:50:25;13.13;;;3.77;;
5742;SDS011;2896;53.500;10.020;2023-03-23T09:53:00;5.90;;;2.80;;
5742;SDS011;2896;53.500;10.020;2023-03-23T09:55:31;10.07;;;2.80;;
5742;SDS011;2896;53.500;10.020;2023-03-23T09:57:58;8.53;;;2.57;;
5742;SDS011;2896;53.500;10.020;2023-03-23T10:00:29;8.83;;;2.57;;
5742;SDS011;2896;53.500;10.020;2023-03-23T10:03:00;5.83;;;2.73;;
5742;SDS011;2896;53.500;10.020;2023-03-23T10:05:42;7.43;;;3.37;;
5742;SDS011;2896;53.500;10.020;2023-03-23T10:08:14;6.40;;;2.93;;
5742;SDS011;2896;53.500;10.020;2023-03-23T10:10:45;12.90;;;3.00;;
5742;SDS011;2896;53.500;10.020;2023-03-23T10:13:23;8.83;;;2.70;;
5742;SDS011;2896;53.500;10.020;2023-03-23T10:16:03;5.93;;;2.60;;
5742;SDS011;2896;53.500;10.020;2023-03-23T10:18:37;9.70;;;2.80;;
5742;SDS011;2896;53.500;10.020;2023-03-23T10:21:10;18.97;;;4.23;;
5742;SDS011;2896;53.500;10.020;2023-03-23T10:23:52;12.10;;;2.70;;
5742;SDS011;2896;53.500;10.020;2023-03-23T10:26:26;8.43;;;3.07;;
5742;SDS011;2896;53.500;10.020;2023-03-23T10:28:58;14.70;;;3.50;;
5742;SDS011;2896;53.500;10.020;2023-03-23T10:31:35;13.60;;;2.70;;
5742;SDS011;2896;53.500;10.020;2023-03-23T10:34:08;5.70;;;2.73;;
5742;SDS011;2896;53.500;10.020;2023-03-23T10:36:48;10.40;;;3.00;;
5742;SDS011;2896;53.500;10.020;2023-03-23T10:39:21;10.37;;;3.23;;
5742;SDS011;2896;53.500;10.020;2023-03-23T10:41:52;12.07;;;3.07;;
5742;SDS011;2896;53.500;10.020;2023-03-23T10:44:19;13.20;;;3.30;;
5742;SDS011;2896;53.500;10.020;2023-03-23T10:46:49;14.43;;;3.40;;
5742;SDS011;2896;53.500;10.020;2023-03-23T10:49:23;16.80;;;4.30;;
5742;SDS011;2896;53.500;10.020;2023-03-23T10:51:55;9.60;;;3.40;;
5742;SDS011;2896;53.500;10.020;2023-03-23T10:54:31;11.43;;;3.10;;
5742;SDS011;2896;53.500;10.020;2023-03-23T10:57:11;12.00;;;3.07;;
5742;SDS011;2896;53.500;10.020;2023-03-23T10:59:39;10.67;;;2.73;;
5742;SDS011;2896;53.500;10.020;2023-03-23T11:02:14;16.53;;;3.60;;
5742;SDS011;2896;53.500;10.020;2023-03-23T11:04:47;18.00;;;3.90;;
5742;SDS011;2896;53.500;10.020;2023-03-23T11:07:24;14.93;;;4.03;;
5742;SDS011;2896;53.500;10.020;2023-03-23T11:09:56;26.53;;;4.40;;
5742;SDS011;2896;53.500;10.020;2023-03-23T11:12:32;11.30;;;4.07;;
5742;SDS011;2896;53.500;10.020;2023-03-23T11:15:03;11.50;;;2.73;;
5742;SDS011;2896;53.500;10.020;2023-03-23T11:17:40;8.43;;;3.20;;
5742;SDS011;2896;53.500;10.020;2023-03-23T11:20:10;15.40;;;4.00;;
5742;SDS011;2896;53.500;10.020;2023-03-23T11:22:38;15.10;;;4.00;;
5742;SDS011;2896;53.500;10.020;2023-03-23T11:25:09;5.77;;;2.67;;
5742;SDS011;2896;53.500;10.020;2023-03-23T11:27:39;16.17;;;4.47;;
5742;SDS011;2896;53.500;10.020;2023-03-23T11:30:08;10.10;;;3.07;;
5742;SDS011;2896;53.500;10.020;2023-03-23T11:32:36;13.30;;;4.37;;
5742;SDS011;2896;53.500;10.020;2023-03-23T11:35:04;16.40;;;3.53;;
5742;SDS011;2896;53.500;10.020;2023-03-23T11:37:41;13.73;;;3.70;;
5742;SDS011;2896;53.500;10.020;2023-03-23T11:40:15;13.23;;;3.37;;
5742;SDS011;2896;53.500;10.020;2023-03-23T11:42:45;13.03;;;3.57;;
5742;SDS011;2896;53.500;10.020;2023-03-23T11:45:14;11.80;;;4.47;;
5742;SDS011;2896;53.500;10.020;2023-03-23T11:47:45;6.43;;;3.30;;
5742;SDS011;2896;53.500;10.020;2023-03-23T11:50:23;12.47;;;3.37;;
5742;SDS011;2896;53.500;10.020;2023-03-23T11:53:06;11.87;;;3.47;;
5742;SDS011;2896;53.500;10.020;2023-03-23T11:55:50;11.00;;;3.33;;
5742;SDS011;2896;53.500;10.020;2023-03-23T11:58:22;14.77;;;3.67;;
5742;SDS011;2896;53.500;10.020;2023-03-23T12:00:51;9.43;;;3.90;;
5742;SDS011;2896;53.500;10.020;2023-03-23T12:03:22;10.10;;;3.83;;
5742;SDS011;2896;53.500;10.020;2023-03-23T12:05:52;11.33;;;3.73;;
5742;SDS011;2896;53.500;10.020;2023-03-23T12:08:35;9.10;;;2.87;;
5742;SDS011;2896;53.500;10.020;2023-03-23T12:11:20;12.40;;;4.00;;
5742;SDS011;2896;53.500;10.020;2023-03-23T12:13:54;11.43;;;3.53;;
5742;SDS011;2896;53.500;10.020;2023-03-23T12:16:30;14.03;;;4.47;;
5742;SDS011;2896;53.500;10.020;2023-03-23T12:19:08;10.60;;;3.20;;
5742;SDS011;2896;53.500;10.020;2023-03-23T12:21:43;11.10;;;3.17;;
5742;SDS011;2896;53.500;10.020;2023-03-23T12:24:21;6.80;;;3.40;;
5742;SDS011;2896;53.500;10.020;2023-03-23T12:27:01;15.70;;;3.50;;
5742;SDS011;2896;53.500;10.020;2023-03-23T12:29:35;16.00;;;3.47;;
5742;SDS011;2896;53.500;10.020;2023-03-23T12:32:21;9.40;;;3.70;;
5742;SDS011;2896;53.500;10.020;2023-03-23T12:34:57;7.00;;;2.97;;
5742;SDS011;2896;53.500;10.020;2023-03-23T12:37:35;7.90;;;3.00;;
5742;SDS011;2896;53.500;10.020;2023-03-23T12:40:18;15.67;;;3.17;;
5742;SDS011;2896;53.500;10.020;2023-03-23T12:43:08;10.10;;;3.30;;
5742;SDS011;2896;53.500;10.020;2023-03-23T12:45:50;7.97;;;3.50;;
5742;SDS011;2896;53.500;10.020;2023-03-23T12:48:31;20.20;;;6.30;;
5742;SDS011;2896;53.500;10.020;2023-03-23T12:51:06;13.80;;;4.93;;
5742;SDS011;2896;53.500;10.020;2023-03-23T12:53:41;11.50;;;4.10;;
5742;SDS011;2896;53.500;10.020;2023-03-23T12:56:13;13.97;;;3.63;;
5742;SDS011;2896;53.500;10.020;2023-03-23T12:58:45;8.20;;;3.47;;
5742;SDS011;2896;53.500;10.020;2023-03-23T13:01:17;9.93;;;3.93;;
5742;SDS011;2896;53.500;10.020;2023-03-23T13:03:48;10.67;;;3.00;;
5742;SDS011;2896;53.500;10.020;2023-03-23T13:06:20;8.30;;;3.47;;
5742;SDS011;2896;53.500;10.020;2023-03-23T13:08:51;8.80;;;3.40;;
5742;SDS011;2896;53.500;10.020;2023-03-23T13:11:22;13.03;;;3.80;;
5742;SDS011;2896;53.500;10.020;2023-03-23T13:13:56;14.47;;;3.90;;
5742;SDS011;2896;53.500;10.020;2023-03-23T13:16:35;5.40;;;2.73;;
5742;SDS011;2896;53.500;10.020;2023-03-23T13:19:06;8.83;;;3.13;;
5742;SDS011;2896;53.500;10.020;2023-03-23T13:21:38;13.47;;;3.00;;
5742;SDS011;2896;53.500;10.020;2023-03-23T13:24:10;8.77;;;3.30;;
5742;SDS011;2896;53.500;10.020;2023-03-23T13:26:41;6.47;;;3.37;;
5742;SDS011;2896;53.500;10.020;2023-03-23T13:29:11;9.00;;;3.37;;
5742;SDS011;2896;53.500;10.020;2023-03-23T13:31:40;7.40;;;3.37;;
5742;SDS011;2896;53.500;10.020;2023-03-23T13:34:12;10.40;;;3.20;;
5742;SDS011;2896;53.500;10.020;2023-03-23T13:36:44;9.03;;;2.67;;
5742;SDS011;2896;53.500;10.020;2023-03-23T13:39:18;3.27;;;2.80;;
5742;SDS011;2896;53.500;10.020;2023-03-23T13:41:59;5.00;;;3.17;;
5742;SDS011;2896;53.500;10.020;2023-03-23T13:44:40;7.77;;;3.10;;
5742;SDS011;2896;53.500;10.020;2023-03-23T13:47:16;4.40;;;2.90;;
5742;SDS011;2896;53.500;10.020;2023-03-23T13:49:53;4.50;;;2.60;;
5742;SDS011;2896;53.500;10.020;2023-03-23T13:52:22;6.00;;;2.60;;
5742;SDS011;2896;53.500;10.020;2023-03-23T13:54:51;3.27;;;2.97;;
5742;SDS011;2896;53.500;10.020;2023-03-23T13:57:35;3.40;;;2.23;;
5742;SDS011;2896;53.500;10.020;2023-03-23T14:00:24;5.30;;;1.73;;
5742;SDS011;2896;53.500;10.020;2023-03-23T14:03:00;7.60;;;2.40;;
5742;SDS011;2896;53.500;10.020;2023-03-23T14:05:30;4.10;;;2.27;;
5742;SDS011;2896;53.500;10.020;2023-03-23T14:08:00;3.43;;;1.77;;
5742;SDS011;2896;53.500;10.020;2023-03-23T14:10:32;2.10;;;1.60;;
5742;SDS011;2896;53.500;10.020;2023-03-23T14:13:01;4.33;;;1.70;;
5742;SDS011;2896;53.500;10.020;2023-03-23T14:15:31;6.77;;;3.00;;
5742;SDS011;2896;53.500;10.020;2023-03-23T14:18:11;4.63;;;1.97;;
5742;SDS011;2896;53.500;10.020;2023-03-23T14:20:40;4.00;;;1.80;;
5742;SDS011;2896;53.500;10.020;2023-03-23T14:23:12;3.73;;;1.70;;
5742;SDS011;2896;53.500;10.020;2023-03-23T14:25:41;10.10;;;1.87;;
5742;SDS011;2896;53.500;10.020;2023-03-23T14:28:15;4.27;;;1.90;;
5742;SDS011;2896;53.500;10.020;2023-03-23T14:30:44;10.07;;;2.23;;
5742;SDS011;2896;53.500;10.020;2023-03-23T14:33:11;4.03;;;1.73;;
5742;SDS011;2896;53.500;10.020;2023-03-23T14:35:40;6.30;;;1.93;;
5742;SDS011;2896;53.500;10.020;2023-03-23T14:38:11;4.20;;;1.87;;
5742;SDS011;2896;53.500;10.020;2023-03-23T14:40:41;4.20;;;1.77;;
5742;SDS011;2896;53.500;10.020;2023-03-23T14:43:08;4.40;;;1.80;;
5742;SDS011;2896;53.500;10.020;2023-03-23T14:45:38;2.40;;;1.80;;
5742;SDS011;2896;53.500;10.020;2023-03-23T14:48:06;11.00;;;3.70;;
5742;SDS011;2896;53.500;10.020;2023-03-23T14:50:36;4.40;;;2.40;;
5742;SDS011;2896;53.500;10.020;2023-03-23T14:53:09;5.33;;;1.83;;
5742;SDS011;2896;53.500;10.020;2023-03-23T14:55:41;4.17;;;1.90;;
5742;SDS011;2896;53.500;10.020;2023-03-23T14:58:08;4.53;;;1.70;;
5742;SDS011;2896;53.500;10.020;2023-03-23T15:00:40;3.00;;;1.60;;
5742;SDS011;2896;53.500;10.020;2023-03-23T15:03:12;2.67;;;1.80;;
5742;SDS011;2896;53.500;10.020;2023-03-23T15:05:42;2.50;;;1.53;;
5742;SDS011;2896;53.500;10.020;2023-03-23T15:08:12;7.80;;;1.97;;
5742;SDS011;2896;53.500;10.020;2023-03-23T15:10:41;6.53;;;2.47;;